createdAt,value
2023-01-13T00:00:38.490Z,9.00
2023-01-13T00:03:08.660Z,9.00
2023-01-13T00:05:38.716Z,9.10
2023-01-13T00:08:07.566Z,9.00
2023-01-13T00:10:36.752Z,9.00
2023-01-13T00:13:06.853Z,8.90
2023-01-13T00:15:35.557Z,9.00
2023-01-13T00:18:04.471Z,9.00
2023-01-13T00:20:34.781Z,8.90
2023-01-13T00:23:04.461Z,8.80
2023-01-13T00:25:33.982Z,8.80
2023-01-13T00:28:02.770Z,8.90
2023-01-13T00:30:31.455Z,8.80
2023-01-13T00:33:00.126Z,8.80
2023-01-13T00:35:28.780Z,8.80
2023-01-13T00:37:58.946Z,8.70
2023-01-13T00:40:27.751Z,8.60
2023-01-13T00:43:19.434Z,8.50
2023-01-13T00:45:48.108Z,8.40
2023-01-13T00:48:16.819Z,8.40
2023-01-13T00:50:45.518Z,8.20
2023-01-13T00:53:17.497Z,8.20
2023-01-13T00:55:46.138Z,8.10
2023-01-13T00:58:14.971Z,8.10
2023-01-13T01:00:43.824Z,8.00
2023-01-13T01:03:12.888Z,8.00
2023-01-13T01:05:41.627Z,8.00
2023-01-13T01:08:10.301Z,8.10
2023-01-13T01:10:40.388Z,8.20
2023-01-13T01:13:11.803Z,8.20
2023-01-13T01:15:42.045Z,8.20
2023-01-13T01:18:10.870Z,8.20
2023-01-13T01:20:39.505Z,8.20
2023-01-13T01:23:08.378Z,8.10
2023-01-13T01:25:38.775Z,8.10
2023-01-13T01:28:08.866Z,8.00
2023-01-13T01:30:40.265Z,8.00
2023-01-13T01:33:09.001Z,8.10
2023-01-13T01:35:40.628Z,8.10
2023-01-13T01:38:09.420Z,8.10
2023-01-13T01:40:38.065Z,8.10
2023-01-13T01:43:41.090Z,8.20
2023-01-13T01:46:09.937Z,8.10
2023-01-13T01:48:43.502Z,8.00
2023-01-13T01:51:15.010Z,8.00
2023-01-13T01:53:43.746Z,8.00
2023-01-13T01:56:12.816Z,8.00
2023-01-13T01:58:47.898Z,7.90
2023-01-13T02:01:17.087Z,7.80
2023-01-13T02:03:53.731Z,7.80
2023-01-13T02:06:22.497Z,7.70
2023-01-13T02:08:51.523Z,7.80
2023-01-13T02:11:48.811Z,7.80
2023-01-13T02:14:19.674Z,7.80
2023-01-13T02:16:55.955Z,7.80
2023-01-13T02:20:00.769Z,7.80
2023-01-13T02:22:47.881Z,7.70
2023-01-13T02:25:55.975Z,7.70
2023-01-13T02:29:07.090Z,7.70
2023-01-13T02:31:44.327Z,7.70
2023-01-13T02:34:18.570Z,7.70
2023-01-13T02:36:54.762Z,7.70
2023-01-13T02:39:27.756Z,7.70
2023-01-13T02:42:21.112Z,7.70
2023-01-13T02:44:55.161Z,7.60
2023-01-13T02:47:27.947Z,7.60
2023-01-13T02:50:00.175Z,7.60
2023-01-13T02:52:34.746Z,7.60
2023-01-13T02:55:08.899Z,7.60
2023-01-13T02:57:40.929Z,7.70
2023-01-13T03:00:12.470Z,7.70
2023-01-13T03:02:42.580Z,7.80
2023-01-13T03:05:15.693Z,7.80
2023-01-13T03:07:55.937Z,7.80
2023-01-13T03:10:36.639Z,7.80
2023-01-13T03:13:20.503Z,7.80
2023-01-13T03:15:55.747Z,7.90
2023-01-13T03:18:37.007Z,7.80
2023-01-13T03:21:14.036Z,7.80
2023-01-13T03:23:51.722Z,7.90
2023-01-13T03:26:27.895Z,7.90
2023-01-13T03:29:03.013Z,7.80
2023-01-13T03:31:33.999Z,7.80
2023-01-13T03:34:10.545Z,7.80
2023-01-13T03:36:41.565Z,7.90
2023-01-13T03:39:13.919Z,7.80
2023-01-13T03:41:47.694Z,7.90
2023-01-13T03:44:23.100Z,8.00
2023-01-13T03:46:59.559Z,8.10
2023-01-13T03:49:35.902Z,8.20
2023-01-13T03:52:09.732Z,8.30
2023-01-13T03:54:54.921Z,8.30
2023-01-13T03:57:30.435Z,8.20
2023-01-13T04:00:04.044Z,8.10
2023-01-13T04:02:43.990Z,8.00
2023-01-13T04:05:15.275Z,8.00
2023-01-13T04:07:51.232Z,8.00
2023-01-13T04:10:24.582Z,8.00
2023-01-13T04:13:03.188Z,8.00
2023-01-13T04:15:35.447Z,8.00
2023-01-13T04:18:11.668Z,8.00
2023-01-13T04:20:43.096Z,8.00
2023-01-13T04:23:13.653Z,7.90
2023-01-13T04:25:42.752Z,7.80
2023-01-13T04:28:12.310Z,7.70
2023-01-13T04:30:41.614Z,7.70
2023-01-13T04:33:10.588Z,7.70
2023-01-13T04:35:39.507Z,7.70
2023-01-13T04:38:12.041Z,7.70
2023-01-13T04:40:41.379Z,7.70
2023-01-13T04:43:10.320Z,7.70
2023-01-13T04:45:38.941Z,7.70
2023-01-13T04:48:08.028Z,7.60
2023-01-13T04:50:37.127Z,7.50
2023-01-13T04:53:06.215Z,7.50
2023-01-13T04:55:36.371Z,7.60
2023-01-13T04:58:06.506Z,7.60
2023-01-13T05:00:35.570Z,7.50
2023-01-13T05:03:05.107Z,7.40
2023-01-13T05:05:33.903Z,7.50
2023-01-13T05:08:02.672Z,7.60
2023-01-13T05:10:31.661Z,7.60
2023-01-13T05:13:19.015Z,7.50
2023-01-13T05:16:06.696Z,7.50
2023-01-13T05:18:35.980Z,7.40
2023-01-13T05:21:04.756Z,7.30
2023-01-13T05:23:50.777Z,7.30
2023-01-13T05:26:19.383Z,7.30
2023-01-13T05:28:49.320Z,7.30
2023-01-13T05:31:17.998Z,7.40
2023-01-13T05:33:46.617Z,7.40
2023-01-13T05:36:15.191Z,7.40
2023-01-13T05:38:43.752Z,7.40
2023-01-13T05:41:29.929Z,7.40
2023-01-13T05:43:59.866Z,7.30
2023-01-13T05:46:28.587Z,7.30
2023-01-13T05:48:57.239Z,7.40
2023-01-13T05:51:26.499Z,7.40
2023-01-13T05:53:55.151Z,7.40
2023-01-13T05:56:23.879Z,7.40
2023-01-13T05:58:52.510Z,7.30
2023-01-13T06:01:22.539Z,7.40
2023-01-13T06:03:51.174Z,7.50
2023-01-13T06:06:19.773Z,7.60
2023-01-13T06:08:48.390Z,7.60
2023-01-13T06:11:17.176Z,7.70
2023-01-13T06:13:45.801Z,7.70
2023-01-13T06:16:14.397Z,7.70
2023-01-13T06:18:44.401Z,7.60
2023-01-13T06:21:13.152Z,7.50
2023-01-13T06:23:42.358Z,7.50
2023-01-13T06:26:16.917Z,7.40
2023-01-13T06:28:45.728Z,7.40
2023-01-13T06:31:14.443Z,7.40
2023-01-13T06:33:49.323Z,7.50
2023-01-13T06:36:23.611Z,7.50
2023-01-13T06:38:56.074Z,7.50
2023-01-13T06:41:39.362Z,7.60
2023-01-13T06:44:08.376Z,7.70
2023-01-13T06:46:37.522Z,7.70
2023-01-13T06:49:07.857Z,7.70
2023-01-13T06:51:36.677Z,7.70
2023-01-13T06:54:06.004Z,7.70
2023-01-13T06:56:34.839Z,7.80
2023-01-13T06:59:03.532Z,7.80
2023-01-13T07:01:32.395Z,7.80
2023-01-13T07:04:01.422Z,7.70
2023-01-13T07:06:31.737Z,7.80
2023-01-13T07:09:00.670Z,7.80
2023-01-13T07:11:29.479Z,7.80
2023-01-13T07:14:17.092Z,7.80
2023-01-13T07:16:45.961Z,7.80
2023-01-13T07:19:23.257Z,7.80
2023-01-13T07:21:53.945Z,7.80
2023-01-13T07:24:23.520Z,7.80
2023-01-13T07:26:52.999Z,7.80
2023-01-13T07:29:21.897Z,7.80
2023-01-13T07:31:50.826Z,7.90
2023-01-13T07:34:20.811Z,7.90
2023-01-13T07:36:49.676Z,7.90
2023-01-13T07:39:25.005Z,7.90
2023-01-13T07:42:11.007Z,8.00
2023-01-13T07:44:42.046Z,7.90
2023-01-13T07:47:11.393Z,8.00
2023-01-13T07:49:40.235Z,8.00
2023-01-13T07:52:08.981Z,8.10
2023-01-13T07:54:41.011Z,8.10
2023-01-13T07:57:10.244Z,8.10
2023-01-13T07:59:38.975Z,8.10
2023-01-13T08:02:07.981Z,8.10
2023-01-13T08:04:39.927Z,8.10
2023-01-13T08:07:08.707Z,8.10
2023-01-13T08:09:39.343Z,8.10
2023-01-13T08:12:25.985Z,8.00
2023-01-13T08:14:54.791Z,8.00
2023-01-13T08:17:23.652Z,7.90
2023-01-13T08:19:52.446Z,7.90
2023-01-13T08:22:21.194Z,7.90
2023-01-13T08:24:51.460Z,7.80
2023-01-13T08:27:20.824Z,7.90
2023-01-13T08:29:51.963Z,7.90
2023-01-13T08:32:20.746Z,7.90
2023-01-13T08:34:49.606Z,8.00
2023-01-13T08:37:21.296Z,8.10
2023-01-13T08:39:51.554Z,8.10
2023-01-13T08:42:23.266Z,8.10
2023-01-13T08:44:51.963Z,8.10
2023-01-13T08:47:20.727Z,8.10
2023-01-13T08:49:49.487Z,8.10
2023-01-13T08:52:18.359Z,8.20
2023-01-13T08:54:49.289Z,8.30
2023-01-13T08:57:19.971Z,8.30
2023-01-13T08:59:51.815Z,8.40
2023-01-13T09:02:23.182Z,8.40
2023-01-13T09:04:52.838Z,8.40
2023-01-13T09:07:21.842Z,8.40
2023-01-13T09:09:51.372Z,8.50
2023-01-13T09:12:39.684Z,8.50
2023-01-13T09:15:11.197Z,8.50
2023-01-13T09:17:40.104Z,8.50
2023-01-13T09:20:10.051Z,8.40
2023-01-13T09:22:40.734Z,8.40
2023-01-13T09:25:10.904Z,8.20
2023-01-13T09:27:43.934Z,8.10
2023-01-13T09:30:13.550Z,8.10
2023-01-13T09:32:42.349Z,8.00
2023-01-13T09:35:10.522Z,8.00
2023-01-13T09:37:43.880Z,8.00
2023-01-13T09:40:18.247Z,8.00
2023-01-13T09:43:15.503Z,7.90
2023-01-13T09:45:50.404Z,7.90
2023-01-13T09:48:24.014Z,7.90
2023-01-13T09:51:04.183Z,7.80
2023-01-13T09:53:38.704Z,7.90
2023-01-13T09:56:10.798Z,7.90
2023-01-13T09:58:41.018Z,8.00
2023-01-13T10:01:20.644Z,8.00
2023-01-13T10:03:50.305Z,7.90
2023-01-13T10:06:22.368Z,8.00
2023-01-13T10:08:51.680Z,8.00
2023-01-13T10:11:40.677Z,8.00
2023-01-13T10:14:18.919Z,8.00
2023-01-13T10:16:52.336Z,8.00
2023-01-13T10:19:26.098Z,8.00
2023-01-13T10:22:20.255Z,7.90
2023-01-13T10:25:20.536Z,7.90
2023-01-13T10:27:51.049Z,7.90
2023-01-13T10:30:24.055Z,7.90
2023-01-13T10:32:57.530Z,8.00
2023-01-13T10:36:05.870Z,7.90
2023-01-13T10:38:38.759Z,8.00
2023-01-13T10:41:18.770Z,8.00
2023-01-13T10:44:00.029Z,7.90
2023-01-13T10:46:31.684Z,7.80
2023-01-13T10:49:01.641Z,7.70
2023-01-13T10:51:31.664Z,7.70
2023-01-13T10:54:02.844Z,7.70
2023-01-13T10:56:33.983Z,7.80
2023-01-13T10:59:18.482Z,7.80
2023-01-13T11:02:00.100Z,7.80
2023-01-13T11:04:31.754Z,7.90
2023-01-13T11:07:01.065Z,7.90
2023-01-13T11:09:32.008Z,8.10
2023-01-13T11:12:03.068Z,8.20
2023-01-13T11:14:39.564Z,8.30
2023-01-13T11:17:27.044Z,8.30
2023-01-13T11:20:04.677Z,8.20
2023-01-13T11:22:36.697Z,8.20
2023-01-13T11:25:11.044Z,8.20
2023-01-13T11:27:46.892Z,8.10
2023-01-13T11:30:26.071Z,8.10
2023-01-13T11:33:07.464Z,8.20
2023-01-13T11:35:41.858Z,8.20
2023-01-13T11:38:15.979Z,8.20
2023-01-13T11:40:49.687Z,8.20
2023-01-13T11:43:24.447Z,8.30
2023-01-13T11:45:57.543Z,8.30
2023-01-13T11:48:31.525Z,8.30
2023-01-13T11:51:05.013Z,8.40
2023-01-13T11:53:57.986Z,8.40
2023-01-13T11:56:44.781Z,8.50
2023-01-13T11:59:50.078Z,8.50
2023-01-13T12:02:31.560Z,8.50
2023-01-13T12:05:14.381Z,8.50
2023-01-13T12:07:53.352Z,8.50
2023-01-13T12:10:39.444Z,8.50
2023-01-13T12:13:17.002Z,8.50
2023-01-13T12:16:04.129Z,8.50
2023-01-13T12:18:55.759Z,8.50
2023-01-13T12:21:28.216Z,8.50
2023-01-13T12:24:07.131Z,8.50
2023-01-13T12:26:40.291Z,8.50
2023-01-13T12:29:13.821Z,8.60
2023-01-13T12:31:44.661Z,8.60
2023-01-13T12:34:31.407Z,8.60
2023-01-13T12:37:08.540Z,8.60
2023-01-13T12:39:45.915Z,8.60
2023-01-13T12:42:37.464Z,8.60
2023-01-13T12:45:29.108Z,8.60
2023-01-13T12:47:58.990Z,8.80
2023-01-13T12:50:43.490Z,8.80
2023-01-13T12:53:38.747Z,8.80
2023-01-13T12:56:42.035Z,8.80
2023-01-13T12:59:40.194Z,8.80
2023-01-13T13:02:30.510Z,8.90
2023-01-13T13:05:02.422Z,8.80
2023-01-13T13:07:41.756Z,8.90
2023-01-13T13:10:20.909Z,8.90
2023-01-13T13:13:14.046Z,8.90
2023-01-13T13:15:43.422Z,8.90
2023-01-13T13:18:28.294Z,9.00
2023-01-13T13:21:06.208Z,9.00
2023-01-13T13:24:07.693Z,9.00
2023-01-13T13:26:45.805Z,9.00
2023-01-13T13:29:42.033Z,9.10
2023-01-13T13:32:40.567Z,9.10
2023-01-13T13:35:32.557Z,9.10
2023-01-13T13:38:35.730Z,9.10
2023-01-13T13:41:29.453Z,9.20
2023-01-13T13:44:21.581Z,9.20
2023-01-13T13:46:50.777Z,9.30
2023-01-13T13:49:21.545Z,9.30
2023-01-13T13:52:00.251Z,9.30
2023-01-13T13:54:29.163Z,9.20
2023-01-13T13:56:58.652Z,9.30
2023-01-13T13:59:31.069Z,9.30
2023-01-13T14:02:03.700Z,9.30
2023-01-13T14:04:35.687Z,9.30
2023-01-13T14:07:16.148Z,9.40
2023-01-13T14:09:47.860Z,9.50
2023-01-13T14:12:20.010Z,9.50
2023-01-13T14:14:50.949Z,9.50
2023-01-13T14:17:26.840Z,9.50
2023-01-13T14:20:00.344Z,9.50
2023-01-13T14:22:29.076Z,9.50
2023-01-13T14:24:58.143Z,9.40
2023-01-13T14:27:28.403Z,9.40
2023-01-13T14:30:01.193Z,9.50
2023-01-13T14:32:34.713Z,9.40
2023-01-13T14:35:06.435Z,9.30
2023-01-13T14:37:39.821Z,9.30
2023-01-13T14:40:23.703Z,9.30
2023-01-13T14:42:58.666Z,9.30
2023-01-13T14:45:30.464Z,9.30
2023-01-13T14:48:10.384Z,9.30
2023-01-13T14:50:39.047Z,9.20
2023-01-13T14:53:30.359Z,9.30
2023-01-13T14:55:59.794Z,9.20
2023-01-13T14:58:29.579Z,9.20
2023-01-13T15:01:39.503Z,9.10
2023-01-13T15:04:23.481Z,9.20
2023-01-13T15:06:55.401Z,9.10
2023-01-13T15:09:26.790Z,9.10
2023-01-13T15:11:58.789Z,9.10
2023-01-13T15:14:33.737Z,9.10
2023-01-13T15:17:03.212Z,9.00
2023-01-13T15:19:33.273Z,9.00
2023-01-13T15:22:01.898Z,8.80
2023-01-13T15:24:32.090Z,8.80
2023-01-13T15:27:00.748Z,8.80
2023-01-13T15:29:29.853Z,8.80
2023-01-13T15:31:58.463Z,8.70
2023-01-13T15:34:27.465Z,8.70
2023-01-13T15:36:57.565Z,8.80
2023-01-13T15:39:26.179Z,8.80
2023-01-13T15:42:12.204Z,8.70
2023-01-13T15:44:58.364Z,8.80
2023-01-13T15:47:28.788Z,8.90
2023-01-13T15:49:57.420Z,8.90
2023-01-13T15:52:28.557Z,8.90
2023-01-13T15:54:57.548Z,8.90
2023-01-13T15:57:28.286Z,8.90
2023-01-13T15:59:59.376Z,8.90
2023-01-13T16:02:29.785Z,8.90
2023-01-13T16:04:58.729Z,8.80
2023-01-13T16:07:28.790Z,8.90
2023-01-13T16:09:57.553Z,9.00
2023-01-13T16:12:26.313Z,9.00
2023-01-13T16:14:55.006Z,8.90
2023-01-13T16:17:29.179Z,8.80
2023-01-13T16:19:57.872Z,8.70
2023-01-13T16:22:28.021Z,8.70
2023-01-13T16:24:56.693Z,8.70
2023-01-13T16:27:26.754Z,8.70
2023-01-13T16:29:55.575Z,8.70
2023-01-13T16:32:24.354Z,8.60
2023-01-13T16:34:53.041Z,8.80
2023-01-13T16:37:25.353Z,8.80
2023-01-13T16:39:56.365Z,8.70
2023-01-13T16:42:25.040Z,8.70
2023-01-13T16:44:53.872Z,8.60
2023-01-13T16:47:24.267Z,8.60
2023-01-13T16:49:52.937Z,8.60
2023-01-13T16:52:21.537Z,8.50
2023-01-13T16:54:50.279Z,8.40
2023-01-13T16:57:20.333Z,8.40
2023-01-13T16:59:49.023Z,8.30
2023-01-13T17:02:20.206Z,8.30
2023-01-13T17:04:49.622Z,8.30
2023-01-13T17:07:18.850Z,8.40
2023-01-13T17:09:47.597Z,8.40
2023-01-13T17:12:16.276Z,8.30
2023-01-13T17:14:46.395Z,8.30
2023-01-13T17:17:23.005Z,8.20
2023-01-13T17:19:52.985Z,8.20
2023-01-13T17:22:22.792Z,8.10
2023-01-13T17:24:51.646Z,8.10
2023-01-13T17:27:21.526Z,8.20
2023-01-13T17:29:51.570Z,8.20
2023-01-13T17:32:22.992Z,8.10
2023-01-13T17:34:53.815Z,8.00
2023-01-13T17:37:22.530Z,7.90
2023-01-13T17:39:51.215Z,7.80
2023-01-13T17:42:19.901Z,7.70
2023-01-13T17:44:48.663Z,7.70
2023-01-13T17:47:18.871Z,7.60
2023-01-13T17:49:47.732Z,7.50
2023-01-13T17:52:16.439Z,7.40
2023-01-13T17:54:45.111Z,7.40
2023-01-13T17:57:13.778Z,7.30
2023-01-13T17:59:42.620Z,7.20
2023-01-13T18:02:13.295Z,7.30
2023-01-13T18:04:43.627Z,7.40
2023-01-13T18:07:12.265Z,7.40
2023-01-13T18:09:40.888Z,7.50
2023-01-13T18:12:10.601Z,7.40
2023-01-13T18:14:39.485Z,7.30
2023-01-13T18:17:08.298Z,7.30
2023-01-13T18:19:54.073Z,7.30
2023-01-13T18:22:41.489Z,7.30
2023-01-13T18:25:30.644Z,7.30
2023-01-13T18:27:59.983Z,7.30
2023-01-13T18:30:28.640Z,7.40
2023-01-13T18:32:57.495Z,7.50
2023-01-13T18:35:27.355Z,7.60
2023-01-13T18:37:57.515Z,7.60
2023-01-13T18:40:26.272Z,7.60
2023-01-13T18:42:54.985Z,7.50
2023-01-13T18:45:25.618Z,7.40
2023-01-13T18:47:55.437Z,7.30
2023-01-13T18:50:24.636Z,7.20
2023-01-13T18:52:53.449Z,7.20
2023-01-13T18:55:23.785Z,7.10
2023-01-13T18:57:53.567Z,7.10
2023-01-13T19:00:23.660Z,7.10
2023-01-13T19:05:36.105Z,7.20
2023-01-13T19:08:05.368Z,7.10
2023-01-13T19:10:36.763Z,7.00
2023-01-13T19:13:05.395Z,7.00
2023-01-13T19:15:37.135Z,7.00
2023-01-13T19:18:05.961Z,6.90
2023-01-13T19:20:34.728Z,6.90
2023-01-13T19:23:03.406Z,6.90
2023-01-13T19:25:32.301Z,6.90
2023-01-13T19:28:02.352Z,6.80
2023-01-13T19:30:31.082Z,6.80
2023-01-13T19:32:59.774Z,6.70
2023-01-13T19:35:28.392Z,6.80
2023-01-13T19:37:57.182Z,6.80
2023-01-13T19:40:26.595Z,6.80
2023-01-13T19:43:12.593Z,6.80
2023-01-13T19:45:42.641Z,6.90
2023-01-13T19:48:11.958Z,6.80
2023-01-13T19:50:41.390Z,6.80
2023-01-13T19:53:17.187Z,6.80
2023-01-13T19:55:48.382Z,6.70
2023-01-13T19:58:18.959Z,6.70
2023-01-13T20:00:49.194Z,6.70
2023-01-13T20:03:20.669Z,6.90
2023-01-13T20:05:49.468Z,6.90
2023-01-13T20:08:18.786Z,6.90
2023-01-13T20:10:49.184Z,6.90
2023-01-13T20:13:18.178Z,6.80
2023-01-13T20:15:48.291Z,6.80
2023-01-13T20:18:17.022Z,6.80
2023-01-13T20:20:45.882Z,6.80
2023-01-13T20:23:14.570Z,6.80
2023-01-13T20:25:43.898Z,6.90
2023-01-13T20:28:12.592Z,7.00
2023-01-13T20:30:41.731Z,7.00
2023-01-13T20:33:11.913Z,7.00
2023-01-13T20:35:40.578Z,7.10
2023-01-13T20:38:09.579Z,7.30
2023-01-13T20:40:38.431Z,7.40
2023-01-13T20:43:06.612Z,7.40
2023-01-13T20:45:35.346Z,7.30
2023-01-13T20:48:04.120Z,7.20
2023-01-13T20:50:34.332Z,7.20
2023-01-13T20:53:03.132Z,7.10
2023-01-13T20:55:31.879Z,7.10
2023-01-13T20:58:00.606Z,7.10
2023-01-13T21:00:29.799Z,7.10
2023-01-13T21:03:00.011Z,7.00
2023-01-13T21:05:29.651Z,7.00
2023-01-13T21:07:59.927Z,7.00
2023-01-13T21:10:28.684Z,6.90
2023-01-13T21:13:14.810Z,6.90
2023-01-13T21:15:49.118Z,6.80
2023-01-13T21:18:35.304Z,6.80
2023-01-13T21:21:12.431Z,6.80
2023-01-13T21:23:43.689Z,6.80
2023-01-13T21:26:13.267Z,6.80
2023-01-13T21:28:42.001Z,6.80
2023-01-13T21:31:11.671Z,6.70
2023-01-13T21:33:40.494Z,6.60
2023-01-13T21:36:12.172Z,6.70
2023-01-13T21:38:42.371Z,6.80
2023-01-13T21:41:14.439Z,6.80
2023-01-13T21:44:00.470Z,6.90
2023-01-13T21:46:46.413Z,6.90
2023-01-13T21:49:15.345Z,6.80
2023-01-13T21:51:44.993Z,6.70
2023-01-13T21:54:15.151Z,6.70
2023-01-13T21:56:43.822Z,6.70
2023-01-13T21:59:12.647Z,6.70
2023-01-13T22:01:45.933Z,6.70
2023-01-13T22:04:29.974Z,6.60
2023-01-13T22:07:02.034Z,6.50
2023-01-13T22:09:33.260Z,6.50
2023-01-13T22:12:02.377Z,6.50
2023-01-13T22:14:31.113Z,6.50
2023-01-13T22:17:01.100Z,6.40
2023-01-13T22:19:30.583Z,6.40
2023-01-13T22:21:59.244Z,6.50
2023-01-13T22:24:30.243Z,6.60
2023-01-13T22:27:00.261Z,6.70
2023-01-13T22:29:28.945Z,6.60
2023-01-13T22:31:57.765Z,6.70
2023-01-13T22:34:26.585Z,6.80
2023-01-13T22:36:55.443Z,6.90
2023-01-13T22:39:24.168Z,7.00
2023-01-13T22:41:53.049Z,7.00
2023-01-13T22:44:23.520Z,7.00
2023-01-13T22:46:52.299Z,7.10
2023-01-13T22:49:21.721Z,7.10
2023-01-13T22:51:50.696Z,7.10
2023-01-13T22:54:19.763Z,7.10
2023-01-13T22:56:48.578Z,7.10
2023-01-13T22:59:19.195Z,7.10
2023-01-13T23:01:49.415Z,7.20
2023-01-13T23:04:18.293Z,7.10
2023-01-13T23:06:47.173Z,7.00
2023-01-13T23:09:16.064Z,7.00
2023-01-13T23:11:46.739Z,7.10
2023-01-13T23:14:16.378Z,7.00
2023-01-13T23:16:47.042Z,7.00
2023-01-13T23:19:17.413Z,6.90
2023-01-13T23:21:46.157Z,6.90
2023-01-13T23:24:14.858Z,6.90
2023-01-13T23:26:43.671Z,6.90
2023-01-13T23:29:14.058Z,6.90
2023-01-13T23:31:43.397Z,6.80
2023-01-13T23:34:12.100Z,6.80
2023-01-13T23:36:43.422Z,6.70
2023-01-13T23:39:12.298Z,6.70
2023-01-13T23:41:40.951Z,6.70
2023-01-13T23:44:10.564Z,6.70
2023-01-13T23:46:39.244Z,6.70
2023-01-13T23:49:08.057Z,6.70
2023-01-13T23:51:36.690Z,6.70
2023-01-13T23:54:06.793Z,6.60
2023-01-13T23:56:39.313Z,6.60
2023-01-13T23:59:08.947Z,6.50
